Time;durP1;ratioP1;P1;durP2;ratioP2;P2;SDS_P1;SDS_P2;PMS_P1;PMS_P2;Temp;Humidity;BMP_temperature;BMP_pressure;BME280_temperature;BME280_humidity;BME280_pressure;Samples;Min_cycle;Max_cycle;Signal;HPM_P1;HPM_P2
2023/03/23 04:09:32;;;;;;;9.65;4.78;;;11.20;99.90;;;;;;6208780;23;20127;-77
2023/03/23 04:13:12;;;;;;;14.18;5.35;;;11.20;99.90;;;;;;6161479;23;20283;-78
2023/03/23 04:15:38;;;;;;;12.88;4.97;;;11.10;99.90;;;;;;6136257;23;20091;-77
2023/03/23 04:18:05;;;;;;;9.55;4.93;;;11.10;99.90;;;;;;6189006;23;20434;-76
2023/03/23 04:20:31;;;;;;;10.93;3.25;;;11.00;99.90;;;;;;6188814;23;20072;-79
2023/03/23 04:22:57;;;;;;;15.20;4.47;;;11.00;99.90;;;;;;6215164;23;20027;-81
2023/03/23 04:25:23;;;;;;;10.38;3.63;;;11.00;99.90;;;;;;6163912;23;20009;-81
2023/03/23 04:27:53;;;;;;;11.60;3.95;;;10.90;99.90;;;;;;6163702;23;20116;-82
2023/03/23 04:30:21;;;;;;;11.25;4.65;;;10.80;99.90;;;;;;6188740;23;20019;-81
2023/03/23 04:32:50;;;;;;;12.95;3.75;;;10.70;99.90;;;;;;6188797;23;20013;-86
2023/03/23 04:35:17;;;;;;;6.05;2.97;;;10.60;99.90;;;;;;6188886;23;20012;-81
2023/03/23 04:37:43;;;;;;;12.70;3.78;;;10.50;99.90;;;;;;6188900;23;20078;-85
2023/03/23 04:40:12;;;;;;;8.85;3.63;;;10.50;99.90;;;;;;6188641;23;20016;-82
2023/03/23 04:42:39;;;;;;;8.68;2.90;;;10.40;99.90;;;;;;6189847;23;20480;-83
2023/03/23 04:45:07;;;;;;;7.35;1.80;;;10.40;99.90;;;;;;6188563;23;20132;-83
2023/03/23 04:47:39;;;;;;;14.63;3.08;;;10.40;99.90;;;;;;6188491;23;20023;-83
2023/03/23 04:50:11;;;;;;;7.70;1.92;;;10.40;99.90;;;;;;6190000;23;20009;-82
2023/03/23 04:52:40;;;;;;;9.45;1.80;;;10.30;99.90;;;;;;6188511;23;20131;-80
2023/03/23 04:55:07;;;;;;;5.93;1.77;;;10.30;99.90;;;;;;6163666;23;20020;-80
2023/03/23 04:57:33;;;;;;;7.47;1.73;;;10.20;99.90;;;;;;6215019;23;20078;-79
2023/03/23 05:00:00;;;;;;;7.70;2.13;;;10.10;99.90;;;;;;6163768;23;20017;-81
2023/03/23 05:02:30;;;;;;;9.07;2.03;;;10.20;99.90;;;;;;6215875;23;20031;-79
2023/03/23 05:04:58;;;;;;;10.82;2.33;;;10.10;99.90;;;;;;6188429;23;20369;-80
2023/03/23 05:07:23;;;;;;;13.65;2.47;;;10.10;99.90;;;;;;6188351;23;20012;-79
2023/03/23 05:09:49;;;;;;;12.35;2.38;;;10.10;99.90;;;;;;6188570;23;20008;-79
2023/03/23 05:12:16;;;;;;;13.82;2.88;;;10.10;99.90;;;;;;6188375;23;20091;-80
2023/03/23 05:14:42;;;;;;;12.05;2.85;;;10.10;99.90;;;;;;6189164;23;20051;-80
2023/03/23 05:17:08;;;;;;;13.30;2.92;;;10.20;99.90;;;;;;6215092;23;20457;-79
2023/03/23 05:19:35;;;;;;;9.57;2.85;;;10.10;99.90;;;;;;6163624;23;20024;-81
2023/03/23 05:22:02;;;;;;;13.93;2.80;;;10.20;99.90;;;;;;6215002;23;20017;-79
2023/03/23 05:24:31;;;;;;;20.40;3.78;;;10.10;99.90;;;;;;6188286;23;20052;-80
2023/03/23 05:26:57;;;;;;;16.38;2.67;;;10.10;99.90;;;;;;6216148;23;20008;-80
2023/03/23 05:29:23;;;;;;;10.75;2.88;;;10.10;99.90;;;;;;6190306;23;20075;-78
2023/03/23 05:31:49;;;;;;;11.18;3.58;;;10.10;99.90;;;;;;6190325;23;20013;-77
2023/03/23 05:34:16;;;;;;;12.25;2.53;;;10.20;99.90;;;;;;6190554;23;20013;-80
2023/03/23 05:36:43;;;;;;;12.07;2.03;;;10.20;99.90;;;;;;6190367;23;20017;-81
2023/03/23 05:39:11;;;;;;;10.50;2.42;;;10.20;99.90;;;;;;6190185;23;20054;-79
2023/03/23 05:41:38;;;;;;;14.43;2.85;;;10.30;99.90;;;;;;6189985;23;20034;-77
2023/03/23 05:44:04;;;;;;;11.77;2.47;;;10.30;99.90;;;;;;6190048;23;20020;-78
2023/03/23 05:46:29;;;;;;;14.95;3.20;;;10.40;99.90;;;;;;6190027;23;20294;-80
2023/03/23 05:48:55;;;;;;;16.70;3.08;;;10.40;99.90;;;;;;6165444;23;20385;-77
2023/03/23 05:51:21;;;;;;;12.18;2.47;;;10.40;99.90;;;;;;6190159;23;20012;-78
2023/03/23 05:53:47;;;;;;;14.68;2.90;;;10.40;99.90;;;;;;6165248;23;20094;-78
2023/03/23 05:56:14;;;;;;;11.88;2.65;;;10.40;99.90;;;;;;6190199;23;20055;-77
2023/03/23 05:58:40;;;;;;;14.55;2.92;;;10.30;99.90;;;;;;6189935;23;20120;-76
2023/03/23 06:01:08;;;;;;;11.23;2.65;;;10.30;99.90;;;;;;6190246;23;20050;-78
2023/03/23 06:03:35;;;;;;;18.25;3.53;;;10.30;99.90;;;;;;6190138;23;20013;-81
2023/03/23 06:06:04;;;;;;;13.85;4.43;;;10.30;99.90;;;;;;6190156;23;20058;-80
2023/03/23 06:08:30;;;;;;;12.60;2.92;;;10.30;99.90;;;;;;6190104;23;20088;-82
2023/03/23 06:10:56;;;;;;;17.70;3.03;;;10.20;99.90;;;;;;6190487;23;20345;-81
2023/03/23 06:13:22;;;;;;;11.23;2.88;;;10.30;99.90;;;;;;6189923;23;20017;-79
2023/03/23 06:15:49;;;;;;;20.85;3.40;;;10.20;99.90;;;;;;6190957;23;20044;-81
2023/03/23 06:18:15;;;;;;;15.52;3.08;;;10.30;99.90;;;;;;6190052;23;20071;-78
2023/03/23 06:20:41;;;;;;;12.38;2.92;;;10.30;99.90;;;;;;6216873;23;20016;-79
2023/03/23 06:23:08;;;;;;;19.65;3.00;;;10.20;99.90;;;;;;6190058;23;20024;-80
2023/03/23 06:25:34;;;;;;;21.48;3.00;;;10.30;99.90;;;;;;6189545;23;20434;-76
2023/03/23 06:28:00;;;;;;;16.20;3.20;;;10.30;99.90;;;;;;6216618;23;20030;-80
2023/03/23 06:30:26;;;;;;;22.13;3.38;;;10.30;99.90;;;;;;6165134;23;20016;-77
2023/03/23 06:32:53;;;;;;;18.58;3.80;;;10.30;99.90;;;;;;6190275;23;20012;-76
2023/03/23 06:35:19;;;;;;;22.52;3.13;;;10.30;99.90;;;;;;6202037;23;20028;-73
2023/03/23 06:37:45;;;;;;;19.80;2.92;;;10.30;99.90;;;;;;6201648;23;20016;-79
2023/03/23 06:40:11;;;;;;;20.33;3.13;;;10.40;99.90;;;;;;6190893;23;20012;-77
2023/03/23 06:42:37;;;;;;;18.10;2.80;;;10.40;99.90;;;;;;6165658;23;20522;-78
2023/03/23 06:45:04;;;;;;;17.48;3.70;;;10.40;99.90;;;;;;6190373;23;20008;-77
2023/03/23 06:47:30;;;;;;;26.02;4.75;;;10.40;99.90;;;;;;6190026;23;20016;-78
2023/03/23 06:49:57;;;;;;;17.02;3.65;;;10.40;99.90;;;;;;6190051;23;20008;-78
2023/03/23 06:52:24;;;;;;;21.08;3.75;;;10.50;99.90;;;;;;6189676;23;20395;-78
2023/03/23 06:54:50;;;;;;;26.20;4.88;;;10.50;99.90;;;;;;6189656;23;20017;-80
2023/03/23 06:57:16;;;;;;;22.23;4.05;;;10.50;99.90;;;;;;6189488;23;20045;-79
2023/03/23 06:59:43;;;;;;;26.60;3.58;;;10.50;99.90;;;;;;6189462;23;20097;-78
2023/03/23 07:02:11;;;;;;;24.73;3.38;;;10.50;99.90;;;;;;6189457;23;20008;-78
2023/03/23 07:04:38;;;;;;;23.20;4.63;;;10.50;99.90;;;;;;6189696;23;20021;-77
2023/03/23 07:07:05;;;;;;;20.13;4.35;;;10.60;99.90;;;;;;6189363;23;20017;-79
2023/03/23 07:09:31;;;;;;;18.85;3.58;;;10.60;99.90;;;;;;6215992;23;20005;-80
2023/03/23 07:11:56;;;;;;;24.95;3.78;;;10.60;99.90;;;;;;6189221;23;20091;-79
2023/03/23 07:14:22;;;;;;;24.73;3.80;;;10.50;99.90;;;;;;6189354;23;20405;-78
2023/03/23 07:16:48;;;;;;;20.30;3.45;;;10.60;99.90;;;;;;6189578;23;20070;-80
2023/03/23 07:19:14;;;;;;;20.30;3.83;;;10.60;99.90;;;;;;6189424;23;20139;-80
2023/03/23 07:21:40;;;;;;;21.42;3.53;;;10.60;99.90;;;;;;6189176;23;20017;-79
2023/03/23 07:24:10;;;;;;;23.02;3.03;;;10.60;99.90;;;;;;6215842;23;20051;-79
2023/03/23 07:26:36;;;;;;;10.20;2.20;;;10.60;99.90;;;;;;6189146;23;20012;-78
2023/03/23 07:29:02;;;;;;;24.48;3.58;;;10.60;99.90;;;;;;6189290;23;20017;-79
2023/03/23 07:31:32;;;;;;;21.83;4.13;;;10.60;99.90;;;;;;6190381;23;20028;-78
2023/03/23 07:33:57;;;;;;;18.58;3.78;;;10.70;99.90;;;;;;6189182;23;20017;-78
2023/03/23 07:36:23;;;;;;;29.85;4.15;;;10.70;99.90;;;;;;6189334;23;20334;-79
2023/03/23 07:38:48;;;;;;;19.77;4.10;;;10.70;99.90;;;;;;6189341;23;20395;-78
2023/03/23 07:41:14;;;;;;;29.38;4.53;;;10.80;99.90;;;;;;6189258;23;20012;-77
2023/03/23 07:43:41;;;;;;;28.00;4.22;;;10.80;99.90;;;;;;6189288;23;20311;-78
2023/03/23 07:46:06;;;;;;;24.48;4.70;;;10.80;99.90;;;;;;6189466;23;20013;-78
2023/03/23 07:48:32;;;;;;;20.85;4.00;;;10.80;99.90;;;;;;6189183;23;20078;-78
2023/03/23 07:50:58;;;;;;;27.42;4.68;;;10.90;99.90;;;;;;6189237;23;20039;-77
2023/03/23 07:53:24;;;;;;;22.38;3.75;;;10.90;99.90;;;;;;6189028;23;20043;-78
2023/03/23 07:55:50;;;;;;;20.70;4.25;;;10.90;99.90;;;;;;6216210;23;20024;-79
2023/03/23 07:58:18;;;;;;;29.98;4.82;;;10.90;99.90;;;;;;6189125;23;20039;-79
2023/03/23 08:00:46;;;;;;;26.80;4.65;;;10.90;99.90;;;;;;6189030;23;20012;-77
2023/03/23 08:03:12;;;;;;;33.35;5.82;;;10.90;99.90;;;;;;6189075;23;20074;-79
2023/03/23 08:05:38;;;;;;;25.75;4.38;;;10.90;99.90;;;;;;6164246;23;20062;-80
2023/03/23 08:08:04;;;;;;;24.88;4.07;;;10.90;99.90;;;;;;6215456;23;20465;-78
2023/03/23 08:10:30;;;;;;;31.40;4.55;;;11.00;99.90;;;;;;6188688;23;20078;-79
2023/03/23 08:12:56;;;;;;;27.75;5.35;;;11.00;99.90;;;;;;6188857;23;20016;-79
2023/03/23 08:15:23;;;;;;;31.63;5.40;;;11.00;99.90;;;;;;6187935;23;20013;-77
2023/03/23 08:17:51;;;;;;;20.88;3.97;;;11.10;99.90;;;;;;6188907;23;20044;-78
2023/03/23 08:20:18;;;;;;;27.25;4.68;;;11.10;99.90;;;;;;6188677;23;20016;-78
2023/03/23 08:22:45;;;;;;;28.02;4.63;;;11.00;99.90;;;;;;6164130;23;20009;-79
2023/03/23 08:25:14;;;;;;;27.23;4.22;;;11.10;99.90;;;;;;6188488;23;20503;-79
2023/03/23 08:27:49;;;;;;;31.17;5.38;;;11.10;99.90;;;;;;6214756;23;20088;-80
2023/03/23 08:30:19;;;;;;;31.05;4.53;;;11.10;99.90;;;;;;6215701;23;20058;-79
2023/03/23 08:32:46;;;;;;;23.35;4.40;;;11.10;99.90;;;;;;6189173;23;20019;-78
2023/03/23 08:35:15;;;;;;;32.33;5.30;;;11.10;99.90;;;;;;6188410;23;20013;-78
2023/03/23 08:37:41;;;;;;;26.33;4.25;;;11.10;99.90;;;;;;6163125;23;20016;-75
2023/03/23 08:40:09;;;;;;;30.25;5.20;;;11.20;99.90;;;;;;6188490;23;20413;-77
2023/03/23 08:42:40;;;;;;;28.05;4.10;;;11.20;99.90;;;;;;6188398;23;20060;-76
2023/03/23 08:45:07;;;;;;;36.05;4.43;;;11.20;99.90;;;;;;6163126;23;20469;-75
2023/03/23 08:47:35;;;;;;;19.00;3.47;;;11.30;99.90;;;;;;6186900;23;20438;-78
2023/03/23 08:50:01;;;;;;;28.98;4.65;;;11.40;99.90;;;;;;6163568;23;20013;-78
2023/03/23 08:52:28;;;;;;;23.38;4.75;;;11.40;99.90;;;;;;6188264;23;20016;-77
2023/03/23 08:54:54;;;;;;;32.67;4.60;;;11.70;99.90;;;;;;6187969;23;20013;-77
2023/03/23 08:57:20;;;;;;;30.52;5.47;;;12.00;99.90;;;;;;6188329;23;20402;-75
2023/03/23 08:59:46;;;;;;;23.73;3.72;;;12.20;99.90;;;;;;6188467;23;20024;-79
2023/03/23 09:02:12;;;;;;;27.80;4.53;;;12.30;99.90;;;;;;6165813;23;20074;-77
2023/03/23 09:04:42;;;;;;;26.65;4.93;;;12.30;99.90;;;;;;6165727;23;20020;-77
2023/03/23 09:07:12;;;;;;;32.45;5.68;;;12.20;99.90;;;;;;6217207;23;20350;-76
2023/03/23 09:09:41;;;;;;;27.02;4.93;;;12.10;99.90;;;;;;6218034;23;20333;-78
2023/03/23 09:12:08;;;;;;;26.75;3.78;;;12.00;99.90;;;;;;6190035;23;20017;-77
2023/03/23 09:14:35;;;;;;;30.15;4.97;;;12.00;99.90;;;;;;6190199;23;20017;-78
2023/03/23 09:17:02;;;;;;;35.33;4.55;;;12.10;99.90;;;;;;6217387;23;20018;-76
2023/03/23 09:19:29;;;;;;;28.65;5.15;;;12.00;99.90;;;;;;6190160;23;20036;-75
2023/03/23 09:21:55;;;;;;;26.88;5.38;;;12.00;99.90;;;;;;6189807;23;20008;-77
2023/03/23 09:24:20;;;;;;;25.67;5.18;;;12.00;99.90;;;;;;6165576;23;20104;-75
2023/03/23 09:26:46;;;;;;;23.70;4.30;;;12.20;99.90;;;;;;6190252;23;20431;-76
2023/03/23 09:29:13;;;;;;;29.80;5.03;;;12.30;99.90;;;;;;6190169;23;20023;-76
2023/03/23 09:31:41;;;;;;;27.92;3.58;;;12.40;99.90;;;;;;6217162;23;20016;-79
2023/03/23 09:34:09;;;;;;;24.20;3.50;;;12.50;99.90;;;;;;6190718;23;20331;-77
2023/03/23 09:36:36;;;;;;;23.58;3.88;;;12.50;99.90;;;;;;6190124;23;20013;-74
2023/03/23 09:39:11;;;;;;;24.92;3.55;;;12.80;99.90;;;;;;6190131;23;20128;-78
2023/03/23 09:42:04;;;;;;;26.45;3.72;;;13.10;99.90;;;;;;6190098;23;20008;-75
2023/03/23 09:44:36;;;;;;;22.35;4.00;;;13.10;99.90;;;;;;6216864;23;20399;-78
2023/03/23 09:47:14;;;;;;;34.33;5.30;;;13.10;99.90;;;;;;6165209;23;20044;-78
2023/03/23 09:49:51;;;;;;;25.23;3.97;;;13.10;99.90;;;;;;6190290;23;20020;-78
2023/03/23 09:52:18;;;;;;;25.35;4.60;;;13.00;99.90;;;;;;6217227;23;20044;-77
2023/03/23 09:54:47;;;;;;;27.67;4.07;;;12.90;99.90;;;;;;6217207;23;20008;-78
2023/03/23 09:57:32;;;;;;;21.35;3.60;;;12.70;99.90;;;;;;6216802;23;20012;-76
2023/03/23 10:00:25;;;;;;;19.73;3.95;;;12.60;99.90;;;;;;6189985;23;20041;-79
2023/03/23 10:03:15;;;;;;;26.52;5.10;;;12.50;99.90;;;;;;6217044;23;20088;-75
2023/03/23 10:05:47;;;;;;;23.92;3.83;;;12.50;99.90;;;;;;6190039;23;20067;-77
2023/03/23 10:08:16;;;;;;;16.02;3.85;;;12.60;99.90;;;;;;6189939;23;20374;-76
2023/03/23 10:11:26;;;;;;;18.38;3.10;;;12.60;99.90;;;;;;6189954;23;20013;-77
2023/03/23 10:14:16;;;;;;;18.00;3.75;;;12.60;99.90;;;;;;6095316;23;20041;-75
2023/03/23 10:17:19;;;;;;;19.98;3.75;;;12.70;99.90;;;;;;6190016;23;20055;-77
2023/03/23 10:20:14;;;;;;;16.33;3.13;;;12.80;99.90;;;;;;6125866;23;20017;-76
2023/03/23 10:22:50;;;;;;;18.58;3.65;;;13.00;99.90;;;;;;6189942;23;20070;-76
2023/03/23 10:25:23;;;;;;;16.67;3.17;;;13.10;99.90;;;;;;6216795;23;20095;-74
2023/03/23 10:28:04;;;;;;;16.63;3.92;;;13.10;99.90;;;;;;6189856;23;20378;-75
2023/03/23 10:30:56;;;;;;;15.15;2.40;;;13.30;99.90;;;;;;6165643;23;20013;-76
2023/03/23 10:33:42;;;;;;;14.23;2.60;;;13.20;99.90;;;;;;6160663;23;20020;-78
2023/03/23 10:36:29;;;;;;;19.35;2.75;;;13.00;99.90;;;;;;6187462;23;20012;-78
2023/03/23 10:39:01;;;;;;;13.98;3.20;;;13.00;99.90;;;;;;6187498;23;20020;-78
2023/03/23 10:41:27;;;;;;;14.63;2.45;;;13.00;99.90;;;;;;6187453;23;20023;-77
2023/03/23 10:43:54;;;;;;;15.05;3.22;;;13.00;99.90;;;;;;6187451;23;20017;-76
2023/03/23 10:46:31;;;;;;;16.77;3.50;;;13.00;99.90;;;;;;6187314;23;20016;-76
2023/03/23 10:48:59;;;;;;;16.58;3.80;;;13.00;99.90;;;;;;6215004;23;20158;-76
2023/03/23 10:51:33;;;;;;;16.33;2.88;;;13.30;99.90;;;;;;6187899;23;20015;-76
2023/03/23 10:54:02;;;;;;;14.05;3.10;;;13.40;99.90;;;;;;6216151;23;20326;-77
2023/03/23 10:56:38;;;;;;;39.70;5.05;;;13.30;99.90;;;;;;6189264;23;20020;-77
2023/03/23 10:59:21;;;;;;;12.43;2.30;;;13.30;99.90;;;;;;6189307;23;20012;-76
2023/03/23 11:01:51;;;;;;;8.90;2.13;;;13.20;99.90;;;;;;6189934;23;20017;-76
2023/03/23 11:04:19;;;;;;;12.27;2.60;;;13.40;99.90;;;;;;6189766;23;20096;-76
2023/03/23 11:06:59;;;;;;;11.55;2.45;;;13.40;99.90;;;;;;6215819;23;20320;-76
2023/03/23 11:09:53;;;;;;;19.23;4.22;;;13.60;99.90;;;;;;6189548;23;20036;-76
2023/03/23 11:12:20;;;;;;;15.75;2.88;;;13.90;99.90;;;;;;6189138;23;20013;-75
2023/03/23 11:14:46;;;;;;;13.10;2.92;;;13.90;99.90;;;;;;6189060;23;20012;-75
2023/03/23 11:17:24;;;;;;;18.60;3.00;;;13.70;99.90;;;;;;6215845;23;20062;-76
2023/03/23 11:19:50;;;;;;;19.30;3.80;;;13.60;99.90;;;;;;6188699;23;20044;-78
2023/03/23 11:22:26;;;;;;;15.63;2.83;;;13.50;99.90;;;;;;6188159;23;20016;-74
2023/03/23 11:24:55;;;;;;;11.23;2.30;;;13.40;99.90;;;;;;6188076;23;20048;-78
2023/03/23 11:27:22;;;;;;;13.63;2.40;;;13.50;99.90;;;;;;6214604;23;20067;-77
2023/03/23 11:30:08;;;;;;;18.55;3.67;;;13.50;99.90;;;;;;6188475;23;20044;-77
2023/03/23 11:32:36;;;;;;;12.70;2.90;;;13.60;99.90;;;;;;6163395;23;20449;-76
2023/03/23 11:35:15;;;;;;;18.55;2.67;;;13.70;99.90;;;;;;6188800;23;20019;-76
2023/03/23 11:37:43;;;;;;;16.42;3.05;;;13.70;99.90;;;;;;6215887;23;20044;-76
2023/03/23 11:40:12;;;;;;;10.80;3.00;;;13.70;99.90;;;;;;6188935;23;20021;-75
2023/03/23 11:42:44;;;;;;;13.68;2.80;;;13.90;99.90;;;;;;6188486;23;20438;-75
2023/03/23 11:45:40;;;;;;;11.20;2.70;;;14.20;99.90;;;;;;6215434;23;20068;-81
2023/03/23 11:48:38;;;;;;;16.38;3.45;;;14.40;99.90;;;;;;6163939;23;20090;-76
2023/03/23 11:51:22;;;;;;;15.40;2.63;;;14.60;99.90;;;;;;6189342;23;20342;-74
2023/03/23 11:54:04;;;;;;;11.30;2.42;;;14.80;99.90;;;;;;6219419;23;20015;-74
2023/03/23 11:56:34;;;;;;;16.70;3.05;;;14.70;99.90;;;;;;6219430;23;20063;-75
2023/03/23 11:59:02;;;;;;;17.75;3.00;;;14.70;99.90;;;;;;6189860;23;20009;-76
2023/03/23 12:01:47;;;;;;;15.30;3.20;;;14.70;99.90;;;;;;6188949;23;20012;-77
2023/03/23 12:04:35;;;;;;;17.00;3.35;;;14.70;99.90;;;;;;6216244;23;20008;-75
2023/03/23 12:07:24;;;;;;;16.20;3.10;;;14.60;99.90;;;;;;6189532;23;20020;-76
2023/03/23 12:10:17;;;;;;;18.08;3.15;;;14.80;99.90;;;;;;6189083;23;20389;-74
2023/03/23 12:13:03;;;;;;;12.93;2.47;;;15.20;99.90;;;;;;6189643;23;20013;-77
2023/03/23 12:15:43;;;;;;;14.30;2.78;;;15.20;99.90;;;;;;6215753;23;20044;-76
2023/03/23 12:18:14;;;;;;;16.00;3.30;;;15.20;99.90;;;;;;6188787;23;20016;-75
2023/03/23 12:21:01;;;;;;;14.18;2.38;;;15.00;99.90;;;;;;6164008;23;20016;-76
2023/03/23 12:23:46;;;;;;;17.98;2.95;;;15.20;99.90;;;;;;6164102;23;20103;-78
2023/03/23 12:26:37;;;;;;;12.38;2.67;;;15.30;99.90;;;;;;6189051;23;20040;-76
2023/03/23 12:29:29;;;;;;;15.10;2.95;;;15.10;99.90;;;;;;6188998;23;20082;-76
2023/03/23 12:32:27;;;;;;;13.27;2.60;;;14.80;99.90;;;;;;6169267;23;20044;-74
2023/03/23 12:35:05;;;;;;;10.73;2.33;;;14.70;99.90;;;;;;6188188;23;20012;-76
2023/03/23 12:37:56;;;;;;;10.68;2.58;;;14.60;99.90;;;;;;6188660;23;20017;-76
2023/03/23 12:40:45;;;;;;;11.40;2.85;;;14.50;99.90;;;;;;6188448;23;20124;-76
2023/03/23 12:43:27;;;;;;;14.65;2.70;;;14.50;99.90;;;;;;6133873;23;20023;-76
2023/03/23 12:46:24;;;;;;;12.32;3.03;;;14.60;99.90;;;;;;6188888;23;20027;-76
2023/03/23 12:49:00;;;;;;;16.27;3.10;;;14.60;99.90;;;;;;6188661;23;20017;-76
2023/03/23 12:51:41;;;;;;;19.52;2.85;;;14.90;99.90;;;;;;6215848;23;20015;-75
2023/03/23 12:54:13;;;;;;;16.92;2.58;;;15.00;99.90;;;;;;6215802;23;20012;-76
2023/03/23 12:56:48;;;;;;;13.27;2.25;;;15.20;99.90;;;;;;6188588;23;20013;-75
2023/03/23 12:59:40;;;;;;;15.73;2.58;;;15.30;99.90;;;;;;6188645;23;20024;-76
2023/03/23 13:02:18;;;;;;;12.05;3.17;;;15.40;99.90;;;;;;6188649;23;20020;-76
2023/03/23 13:04:58;;;;;;;15.55;2.90;;;15.50;99.90;;;;;;6188414;23;20020;-77
2023/03/23 13:07:29;;;;;;;16.55;3.67;;;15.70;99.90;;;;;;6188650;23;20017;-78
2023/03/23 13:10:19;;;;;;;18.90;3.60;;;15.90;99.90;;;;;;6215532;23;20008;-77
2023/03/23 13:12:47;;;;;;;12.10;2.85;;;16.10;99.90;;;;;;6188957;23;20081;-78
2023/03/23 13:15:40;;;;;;;14.57;3.15;;;16.40;99.90;;;;;;6188620;23;20059;-77
2023/03/23 13:18:39;;;;;;;13.05;2.92;;;16.60;99.90;;;;;;6215276;23;20012;-76
2023/03/23 13:21:27;;;;;;;10.63;2.08;;;16.40;99.90;;;;;;6188917;23;20028;-77
2023/03/23 13:24:16;;;;;;;14.82;2.75;;;15.90;99.90;;;;;;6188629;23;20020;-77
2023/03/23 13:26:43;;;;;;;15.32;3.33;;;15.90;99.90;;;;;;6188314;23;20021;-76
2023/03/23 13:29:14;;;;;;;15.40;3.05;;;15.80;99.90;;;;;;6215352;23;20299;-77
2023/03/23 13:31:41;;;;;;;15.20;2.92;;;16.10;99.90;;;;;;6215073;23;20260;-76
2023/03/23 13:34:20;;;;;;;14.82;2.80;;;16.10;99.90;;;;;;6188350;23;20044;-77
2023/03/23 13:37:03;;;;;;;17.10;3.65;;;16.10;99.90;;;;;;6214911;23;20030;-77
2023/03/23 13:39:37;;;;;;;14.60;3.17;;;16.00;99.90;;;;;;6215402;23;20422;-76
2023/03/23 13:42:08;;;;;;;14.50;2.60;;;15.70;99.90;;;;;;6214905;23;20529;-76
2023/03/23 13:44:52;;;;;;;19.08;3.80;;;15.50;99.90;;;;;;6214931;23;20008;-76
2023/03/23 13:47:21;;;;;;;20.52;3.25;;;15.50;99.90;;;;;;6163951;23;20012;-76
2023/03/23 13:49:58;;;;;;;18.80;3.05;;;15.40;99.90;;;;;;6190117;23;20016;-76
2023/03/23 13:52:37;;;;;;;14.70;2.67;;;15.60;99.90;;;;;;6190056;23;20012;-75
2023/03/23 13:55:15;;;;;;;15.30;2.88;;;15.70;99.90;;;;;;6165458;23;20091;-76
2023/03/23 13:58:03;;;;;;;17.75;4.28;;;15.60;99.90;;;;;;6190055;23;20017;-75
2023/03/23 14:00:29;;;;;;;16.85;3.28;;;15.60;99.90;;;;;;6190905;23;20019;-77
2023/03/23 14:03:10;;;;;;;14.50;3.08;;;15.50;99.90;;;;;;6190098;23;20012;-76
2023/03/23 14:05:39;;;;;;;14.57;2.95;;;15.20;99.90;;;;;;6190258;23;20016;-74
2023/03/23 14:08:24;;;;;;;14.90;3.92;;;15.10;99.90;;;;;;6190161;23;20016;-76
2023/03/23 14:10:53;;;;;;;14.73;3.28;;;15.30;99.90;;;;;;6165021;23;20016;-76
2023/03/23 14:13:41;;;;;;;14.25;2.75;;;15.40;99.90;;;;;;6189931;23;20039;-75
2023/03/23 14:16:23;;;;;;;14.23;3.25;;;15.60;99.90;;;;;;6189750;23;20021;-75
2023/03/23 14:19:00;;;;;;;12.50;2.85;;;15.60;99.90;;;;;;6216826;23;20026;-75
2023/03/23 14:21:39;;;;;;;13.75;2.90;;;15.80;99.90;;;;;;6216691;23;20070;-76
2023/03/23 14:24:25;;;;;;;16.17;3.42;;;16.00;99.90;;;;;;6189149;23;20083;-74
2023/03/23 14:26:54;;;;;;;12.02;2.35;;;16.00;99.90;;;;;;6189087;23;20353;-74
2023/03/23 14:29:21;;;;;;;13.52;2.95;;;16.10;99.90;;;;;;6190170;23;20017;-75
2023/03/23 14:31:57;;;;;;;9.55;2.47;;;16.20;99.90;;;;;;6189261;23;20012;-77
2023/03/23 14:34:25;;;;;;;14.20;2.33;;;16.00;99.90;;;;;;6216937;23;20284;-76
2023/03/23 14:36:52;;;;;;;13.43;2.95;;;16.10;99.90;;;;;;6188603;23;20023;-76
2023/03/23 14:39:30;;;;;;;12.90;2.63;;;16.30;99.90;;;;;;6189754;23;20350;-75
2023/03/23 14:42:03;;;;;;;6.43;2.10;;;16.30;99.90;;;;;;6216463;23;20011;-76
2023/03/23 14:44:34;;;;;;;10.60;2.00;;;16.20;99.90;;;;;;6164861;23;20339;-76
2023/03/23 14:47:07;;;;;;;8.85;1.88;;;16.20;99.90;;;;;;6189433;23;20024;-76
2023/03/23 14:49:38;;;;;;;15.77;2.83;;;16.20;99.90;;;;;;6190245;23;20012;-75
2023/03/23 14:52:11;;;;;;;9.02;1.92;;;16.20;99.90;;;;;;6189439;23;20036;-76
2023/03/23 14:54:38;;;;;;;13.27;2.35;;;16.30;99.90;;;;;;6189356;23;20087;-77
2023/03/23 14:57:19;;;;;;;12.63;3.10;;;16.30;99.90;;;;;;6189506;23;20091;-74
2023/03/23 14:59:48;;;;;;;13.23;2.72;;;16.30;99.90;;;;;;6188388;23;20130;-75
2023/03/23 15:02:23;;;;;;;13.18;3.42;;;16.40;99.90;;;;;;6189242;23;20013;-76
2023/03/23 15:04:59;;;;;;;9.27;2.05;;;16.30;99.90;;;;;;6216201;23;20008;-77
2023/03/23 15:07:30;;;;;;;12.02;2.35;;;16.30;99.90;;;;;;6189265;23;20436;-76
2023/03/23 15:09:57;;;;;;;11.95;2.30;;;16.10;99.90;;;;;;6216432;23;20089;-77
2023/03/23 15:12:26;;;;;;;12.32;2.75;;;16.20;99.90;;;;;;6216083;23;20013;-78
2023/03/23 15:14:58;;;;;;;14.55;2.38;;;16.20;99.90;;;;;;6189702;23;20044;-78
2023/03/23 15:17:28;;;;;;;11.45;2.60;;;16.30;99.90;;;;;;6189509;23;20017;-78
2023/03/23 15:19:55;;;;;;;15.48;2.20;;;16.00;99.90;;;;;;6189487;23;20023;-76
2023/03/23 15:22:31;;;;;;;13.60;3.20;;;16.00;99.90;;;;;;6189174;23;20016;-77
2023/03/23 15:25:09;;;;;;;14.30;3.20;;;16.00;99.90;;;;;;6189443;23;20104;-77
2023/03/23 15:27:41;;;;;;;11.35;2.40;;;15.80;99.90;;;;;;6189187;23;20442;-75
2023/03/23 15:30:23;;;;;;;11.60;2.40;;;15.80;99.90;;;;;;6189517;23;20070;-77
2023/03/23 15:32:52;;;;;;;11.38;2.30;;;15.70;99.90;;;;;;6189363;23;20338;-77
2023/03/23 15:35:24;;;;;;;13.32;2.45;;;15.70;99.90;;;;;;6216163;23;20345;-77
2023/03/23 15:38:33;;;;;;;14.02;3.08;;;15.70;99.90;;;;;;6189495;23;20316;-78
2023/03/23 15:41:04;;;;;;;10.35;2.13;;;15.60;99.90;;;;;;6188782;23;20323;-77
2023/03/23 15:43:35;;;;;;;10.55;2.40;;;15.80;99.90;;;;;;6189443;23;20020;-77
2023/03/23 15:46:09;;;;;;;13.15;2.75;;;15.80;99.90;;;;;;6216187;23;20047;-76
2023/03/23 15:48:54;;;;;;;14.63;3.07;;;15.80;99.90;;;;;;6216156;23;20043;-75
2023/03/23 15:51:25;;;;;;;17.23;2.53;;;15.70;99.90;;;;;;6216356;23;20069;-77
2023/03/23 15:53:52;;;;;;;16.15;2.72;;;15.70;99.90;;;;;;6189318;23;20044;-77
2023/03/23 15:56:18;;;;;;;15.23;2.65;;;15.60;99.90;;;;;;6215552;23;20013;-77
2023/03/23 15:58:45;;;;;;;18.45;2.90;;;15.70;99.90;;;;;;6188788;23;20024;-77
2023/03/23 16:01:18;;;;;;;17.63;3.95;;;15.90;99.90;;;;;;6215769;23;20094;-77
2023/03/23 16:03:50;;;;;;;19.88;4.13;;;15.90;99.90;;;;;;6216089;23;20024;-76
2023/03/23 16:06:18;;;;;;;14.40;3.10;;;15.70;99.90;;;;;;6189091;23;20023;-77
2023/03/23 16:08:45;;;;;;;17.77;4.00;;;15.50;99.90;;;;;;6164194;23;20016;-76
2023/03/23 16:11:16;;;;;;;16.50;3.25;;;15.50;99.90;;;;;;6215260;23;20008;-76
2023/03/23 16:13:41;;;;;;;17.00;3.45;;;15.30;99.90;;;;;;6216018;23;20079;-76
2023/03/23 16:16:17;;;;;;;10.52;3.67;;;15.00;99.90;;;;;;6215525;23;20021;-78
2023/03/23 16:18:44;;;;;;;16.70;3.70;;;14.80;99.90;;;;;;6215590;23;20094;-76
2023/03/23 16:21:09;;;;;;;16.02;3.08;;;14.60;99.90;;;;;;6188882;23;20016;-77
2023/03/23 16:23:35;;;;;;;15.70;2.97;;;14.60;99.90;;;;;;6216683;23;20027;-76
2023/03/23 16:26:01;;;;;;;18.90;4.53;;;14.60;99.90;;;;;;6215893;23;20008;-76
2023/03/23 16:28:26;;;;;;;16.00;2.85;;;14.50;99.90;;;;;;6163587;23;20202;-76
2023/03/23 16:30:52;;;;;;;17.25;3.17;;;14.50;99.90;;;;;;6215106;23;20012;-75
2023/03/23 16:33:18;;;;;;;17.25;3.83;;;14.50;99.90;;;;;;6215461;23;20088;-77
2023/03/23 16:35:43;;;;;;;16.27;3.30;;;14.40;99.90;;;;;;6188441;23;20507;-78
2023/03/23 16:38:15;;;;;;;18.00;3.58;;;14.30;99.90;;;;;;6215413;23;20009;-76
2023/03/23 16:40:43;;;;;;;15.20;3.08;;;14.40;99.90;;;;;;6188076;23;20023;-77
2023/03/23 16:43:09;;;;;;;15.00;4.43;;;14.40;99.90;;;;;;6215660;23;20019;-76
2023/03/23 16:45:39;;;;;;;14.95;3.20;;;14.30;99.90;;;;;;6215271;23;20347;-77
2023/03/23 16:48:06;;;;;;;13.77;2.70;;;14.30;99.90;;;;;;6188190;23;20017;-77
2023/03/23 16:50:33;;;;;;;18.85;4.07;;;14.20;99.90;;;;;;6215057;23;20013;-77
2023/03/23 16:52:59;;;;;;;17.52;3.10;;;14.00;99.90;;;;;;6214821;23;20016;-76
2023/03/23 16:55:26;;;;;;;19.38;4.05;;;13.90;99.90;;;;;;6215175;23;20040;-76
2023/03/23 16:57:53;;;;;;;20.08;3.47;;;13.80;99.90;;;;;;6214656;23;20072;-76
2023/03/23 17:00:20;;;;;;;21.88;4.13;;;13.80;99.90;;;;;;6188094;23;20024;-76
2023/03/23 17:02:49;;;;;;;21.88;4.57;;;13.70;99.90;;;;;;6188138;23;20013;-77
2023/03/23 17:05:16;;;;;;;13.85;2.75;;;13.60;99.90;;;;;;6188115;23;20023;-75
2023/03/23 17:07:42;;;;;;;22.85;4.03;;;13.60;99.90;;;;;;6214627;23;20017;-77
2023/03/23 17:10:09;;;;;;;15.63;2.70;;;13.60;99.90;;;;;;6214642;23;20464;-76
2023/03/23 17:12:36;;;;;;;15.68;2.97;;;13.60;99.90;;;;;;6187996;23;20451;-81